Terminal Aerodrome Forecast
Issued by NWS Raleigh/Durham, NC

Home | Current Version | Previous Version | Text Only | Print | Product List | Glossary On
Versions: 1 2 3 4 5 6 7 8 9 10 11 12 13 14 15 16 17 18 19 20 21 22 23 24
000
FTUS42 KRAH 240912 AAB
TAFRDU
TAF AMD
KRDU 240912Z 2409/2506 VRB02KT P6SM SCT008 SCT025 BKN120
      TEMPO 2409/2410 OVC008
     FM241000 VRB03KT 5SM BR OVC003
     FM241400 04007KT P6SM VCSH BKN020
     FM241600 05008KT P6SM VCSH BKN025
     FM241900 04007KT P6SM VCSH BKN035
     FM250000 00000KT P6SM BKN040
     FM250200 00000KT P6SM SCT040=

USA.gov is the U.S. government's official web portal to all federal, state and local government web resources and services.